createdAt,value
2019-01-31T12:54:27.004Z,6.20
2019-01-31T12:57:08.742Z,6.17
2019-01-31T12:59:49.699Z,7.23
2019-01-31T13:02:30.690Z,6.20
2019-01-31T13:05:11.363Z,6.80
2019-01-31T13:07:52.189Z,6.23
2019-01-31T13:10:33.591Z,6.47
2019-01-31T13:13:15.106Z,7.93
2019-01-31T13:21:47.678Z,10.23
2019-01-31T13:27:48.309Z,11.10
2019-01-31T13:30:29.248Z,12.80
2019-01-31T13:33:10.572Z,13.20
2019-01-31T13:35:51.858Z,13.30
2019-01-31T13:41:20.097Z,13.87
2019-01-31T13:46:47.795Z,12.70
2019-01-31T13:49:29.962Z,12.97
2019-01-31T13:52:12.442Z,12.85
2019-01-31T13:57:37.946Z,13.20
2019-01-31T14:00:18.650Z,12.90
2019-01-31T14:03:01.211Z,13.80
2019-01-31T14:11:51.941Z,13.67
2019-01-31T14:17:23.398Z,13.10
2019-01-31T14:22:53.818Z,16.20
2019-01-31T14:28:20.186Z,13.33
2019-01-31T14:33:50.745Z,16.05
2019-01-31T14:39:21.231Z,14.40
2019-01-31T14:44:48.522Z,11.70
2019-01-31T14:53:14.519Z,12.17
2019-01-31T14:58:48.800Z,10.87
2019-01-31T15:04:40.407Z,12.37
2019-01-31T15:07:08.209Z,11.57
2019-01-31T15:09:54.688Z,11.70
2019-01-31T15:12:37.993Z,11.70
2019-01-31T15:15:24.746Z,11.50
2019-01-31T15:20:53.664Z,12.47
2019-01-31T15:23:34.843Z,12.30
2019-01-31T15:26:16.167Z,11.93
2019-01-31T15:28:59.474Z,13.25
2019-01-31T15:31:46.015Z,12.80
2019-01-31T15:37:21.844Z,13.60
2019-01-31T15:40:25.306Z,13.17
2019-01-31T15:42:57.104Z,13.15
2019-01-31T15:45:38.102Z,12.83
2019-01-31T15:48:19.747Z,13.90
2019-01-31T15:53:46.350Z,11.40
2019-01-31T15:56:27.152Z,13.30
2019-01-31T15:59:08.705Z,13.20
2019-01-31T16:07:20.390Z,13.20
2019-01-31T16:12:48.988Z,11.95
2019-01-31T16:15:30.187Z,14.60
2019-01-31T16:17:58.861Z,12.13
2019-01-31T16:20:46.831Z,12.60
2019-01-31T16:23:34.741Z,12.93
2019-01-31T16:26:16.091Z,12.33
2019-01-31T16:28:57.770Z,12.15
2019-01-31T16:34:25.138Z,12.00
2019-01-31T16:39:47.035Z,13.53
2019-01-31T16:48:12.424Z,15.00
2019-01-31T16:53:42.877Z,17.30
2019-01-31T16:59:13.261Z,16.03
2019-01-31T17:01:54.588Z,18.47
2019-01-31T17:04:35.652Z,19.30
2019-01-31T17:10:00.913Z,18.30
2019-01-31T17:12:41.851Z,19.60
2019-01-31T17:15:25.835Z,20.20
2019-01-31T17:18:07.054Z,19.87
2019-01-31T17:20:47.920Z,21.47
2019-01-31T17:23:30.756Z,23.50
2019-01-31T17:26:11.970Z,22.10
2019-01-31T17:28:52.979Z,22.43
2019-01-31T17:34:44.365Z,23.37
2019-01-31T17:37:25.714Z,23.30
2019-01-31T17:40:07.067Z,22.73
2019-01-31T17:42:48.002Z,23.50
2019-01-31T17:45:30.782Z,23.90
2019-01-31T17:48:13.472Z,22.47
2019-01-31T17:53:40.310Z,26.40
2019-01-31T17:56:21.301Z,24.20
2019-01-31T17:59:01.639Z,24.23
2019-01-31T18:01:42.517Z,25.77
2019-01-31T18:04:24.136Z,26.30
2019-01-31T18:07:04.670Z,28.40
2019-01-31T18:09:45.678Z,25.70
2019-01-31T18:12:27.364Z,26.50
2019-01-31T18:15:12.542Z,29.20
2019-01-31T18:17:53.396Z,25.37
2019-01-31T18:20:34.470Z,27.60
2019-01-31T18:23:15.195Z,24.25
2019-01-31T18:25:56.298Z,26.80
2019-01-31T18:34:53.452Z,23.97
2019-01-31T18:37:34.609Z,27.23
2019-01-31T18:40:17.296Z,27.67
2019-01-31T18:45:53.442Z,27.70
2019-01-31T18:48:31.036Z,30.60
2019-01-31T18:51:12.661Z,30.20
2019-01-31T18:54:08.109Z,30.60
2019-01-31T18:56:51.591Z,30.70
2019-01-31T18:59:32.860Z,27.17
2019-01-31T19:02:33.832Z,31.70
2019-01-31T19:05:18.772Z,29.10
2019-01-31T19:14:01.156Z,29.40
2019-01-31T19:16:48.227Z,28.35
2019-01-31T19:19:30.949Z,35.75
2019-01-31T19:22:14.646Z,52.10
2019-01-31T19:24:59.472Z,44.70
2019-01-31T19:28:02.748Z,32.50
2019-01-31T19:30:47.360Z,35.40
2019-01-31T19:38:59.016Z,28.53
2019-01-31T19:41:42.874Z,30.55
2019-01-31T19:44:59.833Z,29.30
2019-01-31T19:50:16.647Z,30.10
2019-01-31T19:58:54.455Z,29.85
2019-01-31T20:01:39.203Z,29.73
2019-01-31T20:13:22.203Z,31.35
2019-01-31T20:16:03.801Z,28.10
2019-01-31T20:18:51.543Z,28.23
2019-01-31T20:25:28.515Z,26.13
2019-01-31T20:27:58.004Z,29.30
2019-01-31T20:30:48.887Z,29.20
2019-01-31T20:36:00.505Z,29.90
2019-01-31T20:38:45.987Z,29.03
2019-01-31T20:41:35.907Z,26.20
2019-01-31T20:44:20.652Z,30.60
2019-01-31T20:47:00.446Z,27.60
2019-01-31T20:49:29.110Z,28.27
2019-01-31T20:52:17.438Z,30.30
2019-01-31T20:55:26.073Z,28.97
2019-01-31T20:58:30.576Z,28.30
2019-01-31T21:01:06.029Z,29.30
2019-01-31T21:06:51.215Z,29.10
2019-01-31T21:10:00.307Z,28.30
2019-01-31T21:15:37.952Z,27.30
2019-01-31T21:18:26.592Z,28.40
2019-01-31T21:21:15.727Z,30.63
2019-01-31T21:24:03.958Z,21.97
2019-01-31T21:26:44.664Z,27.90
2019-01-31T21:32:09.885Z,25.80
2019-01-31T21:34:51.299Z,28.27
2019-01-31T21:40:37.378Z,29.53
2019-01-31T21:43:18.860Z,27.03
2019-01-31T21:48:45.315Z,27.67
2019-01-31T21:51:28.116Z,27.63
2019-01-31T21:54:11.770Z,27.87
2019-01-31T21:59:38.336Z,27.60
2019-01-31T22:05:03.580Z,27.80
2019-01-31T22:10:29.507Z,25.80
2019-01-31T22:13:10.387Z,27.30
2019-01-31T22:19:01.636Z,27.27
2019-01-31T22:21:43.515Z,27.77
2019-01-31T22:27:14.097Z,24.33
2019-01-31T22:32:39.629Z,24.80
2019-01-31T22:35:22.107Z,25.33
2019-01-31T22:38:03.746Z,26.60
2019-01-31T22:40:44.612Z,26.60
2019-01-31T22:43:26.179Z,27.90
2019-01-31T22:46:07.123Z,27.40
2019-01-31T22:48:48.003Z,27.90
2019-01-31T22:51:30.196Z,29.73
2019-01-31T22:56:57.278Z,29.40
2019-01-31T23:02:17.862Z,23.80
2019-01-31T23:04:58.900Z,28.27
2019-01-31T23:07:40.258Z,27.67
2019-01-31T23:13:10.366Z,25.63
2019-01-31T23:15:52.047Z,26.50
2019-01-31T23:18:33.200Z,28.00
2019-01-31T23:21:14.003Z,30.13
2019-01-31T23:23:54.885Z,28.30
2019-01-31T23:26:36.508Z,27.30
2019-01-31T23:32:14.129Z,26.13
2019-01-31T23:34:58.952Z,24.03
2019-01-31T23:37:40.572Z,29.90
2019-01-31T23:40:21.234Z,25.87
2019-01-31T23:43:01.754Z,27.03
2019-01-31T23:45:46.595Z,27.23
2019-01-31T23:48:30.591Z,26.73
2019-01-31T23:51:11.710Z,28.50
2019-01-31T23:53:53.430Z,24.80
2019-01-31T23:59:19.279Z,27.60
